Дата Время Давление Темп. Влажн. Скор.ветра Напр.ветра Макс.ветер Осадки/час Осадки
22.09.18 15:00 743.7 27.3 39.7 3.2 199 9.3 0 0
22.09.18 14:00 744.3 27 41.5 3.8 192 9 0 0
22.09.18 13:00 745 26.7 42 2.6 203 6.5 0 0
22.09.18 12:00 745.1 26 43.6 2.5 184 7.2 0 0
22.09.18 11:00 745.5 24.2 47.8 2.6 196 6.5 0 0
22.09.18 10:00 746.4 21.3 59 2.6 189 5.1 0 0
22.09.18 09:00 746.7 18.9 66.2 2 186 3.6 0 0
22.09.18 08:00 747 16.8 74.8 2 179 3 0 0
22.09.18 07:00 747.5 14.7 85.6 1.5 181 2.5 0 0
22.09.18 06:00 747.8 14.8 86.1 1.4 181 2.5 0 0
22.09.18 05:00 747.9 15.2 83.9 1.5 178 2.4 0 0
22.09.18 04:00 748 15.6 82 1.5 184 3.1 0 0
22.09.18 03:00 748.1 15.7 81.3 1.6 186 3 0 0
22.09.18 02:00 748.3 15.9 79.8 1.3 186 2.1 0 0
22.09.18 01:00 748.5 16.2 78.9 1.5 174 2 0 0
22.09.18 00:00 748.5 16.5 77.9 1.5 177 2.2 0 0
21.09.18 23:00 748.6 17.3 74.4 1.5 179 2.8 0 0
21.09.18 22:00 748.8 17.5 72.3 0.8 179 2.1 0 0
21.09.18 21:00 748.6 18.8 66.7 1.6 169 2 0 0
21.09.18 20:00 748.9 18.6 69.7 0.6 176 1.4 0 0
21.09.18 19:00 748.7 21.7 57 1.1 180 2.1 0 0
21.09.18 18:00 748.6 24.4 49.8 1.5 201 3 0 0
21.09.18 17:00 748.5 28.1 40.4 1 198 3.9 0 0
21.09.18 16:00 748.7 28.5 38.5 1.3 202 3.2 0 0